Chesterfield, Canada
Current Conditions -  °F | °C
As of 5:00 PM on Tuesday 25 Nov 2014 (Local Time) from CYRT Reporting Station
Ice Pellets Ice Pellets  
Wind Chill: -51°   Ceiling: Unl
Heat Index: -22°   Visibility: 15mi
Dew Point: -29°   Wind: 21mph
Humidity: 69%   Direction: 330°NNW
Pressure: 29.88"   Gusts: NA
Location:  63.33°N, 90.7°W
Report Text: CYRT 252300Z 33018KT 15SM IC SCT250 M30/M34 A2988 RMK CI3 SLP125
Loading
Personal Weather Stations






























Interactive Weather Map New forecast layout! Learn more

10-Day Weather Forecast

Advertisements
Track Severe Weather on mobile